sensor_id;sensor_type;location;lat;lon;timestamp;pressure;altitude;pressure_sealevel;temperature;humidity
69971;BME280;57301;50.328;8.542;2022-10-31T00:01:01;98967.81;;;8.68;92.32
69971;BME280;57301;50.328;8.542;2022-10-31T00:03:30;98972.66;;;8.63;92.45
69971;BME280;57301;50.328;8.542;2022-10-31T00:05:59;98971.38;;;8.78;91.96
69971;BME280;57301;50.328;8.542;2022-10-31T00:08:28;98971.25;;;8.79;91.35
69971;BME280;57301;50.328;8.542;2022-10-31T00:10:56;98975.63;;;8.69;92.58
69971;BME280;57301;50.328;8.542;2022-10-31T00:13:23;98973.69;;;8.71;91.86
69971;BME280;57301;50.328;8.542;2022-10-31T00:15:49;98971.63;;;8.75;92.67
69971;BME280;57301;50.328;8.542;2022-10-31T00:18:18;98970.56;;;8.87;94.90
69971;BME280;57301;50.328;8.542;2022-10-31T00:20:45;98971.34;;;8.99;95.01
69971;BME280;57301;50.328;8.542;2022-10-31T00:23:14;98968.00;;;9.06;95.96
69971;BME280;57301;50.328;8.542;2022-10-31T00:25:41;98974.47;;;9.13;96.56
69971;BME280;57301;50.328;8.542;2022-10-31T00:28:10;98982.44;;;9.04;95.47
69971;BME280;57301;50.328;8.542;2022-10-31T00:30:38;98986.47;;;8.98;94.23
69971;BME280;57301;50.328;8.542;2022-10-31T00:33:05;98982.13;;;8.97;93.41
69971;BME280;57301;50.328;8.542;2022-10-31T00:35:32;98985.34;;;9.01;92.75
69971;BME280;57301;50.328;8.542;2022-10-31T00:37:58;98999.69;;;8.88;92.91
69971;BME280;57301;50.328;8.542;2022-10-31T00:40:25;98998.38;;;8.83;92.07
69971;BME280;57301;50.328;8.542;2022-10-31T00:42:51;98996.78;;;8.92;91.81
69971;BME280;57301;50.328;8.542;2022-10-31T00:45:21;99002.34;;;8.88;92.29
69971;BME280;57301;50.328;8.542;2022-10-31T00:47:55;98995.66;;;8.94;91.40
69971;BME280;57301;50.328;8.542;2022-10-31T00:50:40;98997.34;;;8.95;91.34
69971;BME280;57301;50.328;8.542;2022-10-31T00:53:09;98991.00;;;8.86;91.04
69971;BME280;57301;50.328;8.542;2022-10-31T00:55:36;98991.72;;;8.88;90.30
69971;BME280;57301;50.328;8.542;2022-10-31T00:58:05;98993.22;;;8.81;91.02
69971;BME280;57301;50.328;8.542;2022-10-31T01:00:33;98991.72;;;8.88;90.47
69971;BME280;57301;50.328;8.542;2022-10-31T01:02:59;98992.16;;;8.94;91.15
69971;BME280;57301;50.328;8.542;2022-10-31T01:05:26;98987.97;;;8.91;90.80
69971;BME280;57301;50.328;8.542;2022-10-31T01:07:53;98999.59;;;8.90;90.30
69971;BME280;57301;50.328;8.542;2022-10-31T01:10:19;99000.50;;;8.79;90.11
69971;BME280;57301;50.328;8.542;2022-10-31T01:12:48;99003.00;;;8.60;91.47
69971;BME280;57301;50.328;8.542;2022-10-31T01:15:22;98996.59;;;8.63;91.04
69971;BME280;57301;50.328;8.542;2022-10-31T01:17:49;98999.63;;;8.58;90.77
69971;BME280;57301;50.328;8.542;2022-10-31T01:20:16;98990.47;;;8.51;91.14
69971;BME280;57301;50.328;8.542;2022-10-31T01:22:43;98995.47;;;8.65;91.28
69971;BME280;57301;50.328;8.542;2022-10-31T01:25:10;98992.09;;;8.63;90.70
69971;BME280;57301;50.328;8.542;2022-10-31T01:27:37;98993.47;;;8.57;90.69
69971;BME280;57301;50.328;8.542;2022-10-31T01:30:07;98989.63;;;8.50;91.02
69971;BME280;57301;50.328;8.542;2022-10-31T01:32:35;98985.31;;;8.49;90.88
69971;BME280;57301;50.328;8.542;2022-10-31T01:35:02;98975.75;;;8.47;91.22
69971;BME280;57301;50.328;8.542;2022-10-31T01:37:30;98987.81;;;8.51;90.65
69971;BME280;57301;50.328;8.542;2022-10-31T01:39:57;98980.69;;;8.51;90.21
69971;BME280;57301;50.328;8.542;2022-10-31T01:42:23;98992.09;;;8.42;91.54
69971;BME280;57301;50.328;8.542;2022-10-31T01:45:00;98988.97;;;8.37;92.20
69971;BME280;57301;50.328;8.542;2022-10-31T01:47:33;98985.69;;;8.45;91.66
69971;BME280;57301;50.328;8.542;2022-10-31T01:50:10;98982.44;;;8.41;92.43
69971;BME280;57301;50.328;8.542;2022-10-31T01:52:41;98982.31;;;8.43;92.49
69971;BME280;57301;50.328;8.542;2022-10-31T01:55:19;98978.22;;;8.39;91.25
69971;BME280;57301;50.328;8.542;2022-10-31T01:57:51;98983.31;;;8.30;92.27
69971;BME280;57301;50.328;8.542;2022-10-31T02:00:20;98989.84;;;8.26;93.15
69971;BME280;57301;50.328;8.542;2022-10-31T02:02:48;98980.88;;;8.27;92.61
69971;BME280;57301;50.328;8.542;2022-10-31T02:05:19;98988.34;;;8.33;92.78
69971;BME280;57301;50.328;8.542;2022-10-31T02:07:53;98980.88;;;8.39;92.45
69971;BME280;57301;50.328;8.542;2022-10-31T02:10:22;98987.16;;;8.38;92.40
69971;BME280;57301;50.328;8.542;2022-10-31T02:12:54;98991.50;;;8.27;93.03
69971;BME280;57301;50.328;8.542;2022-10-31T02:15:22;98984.00;;;8.32;92.69
69971;BME280;57301;50.328;8.542;2022-10-31T02:17:49;98987.44;;;8.23;93.20
69971;BME280;57301;50.328;8.542;2022-10-31T02:20:21;98984.09;;;8.10;94.80
69971;BME280;57301;50.328;8.542;2022-10-31T02:25:27;98971.38;;;8.25;94.68
69971;BME280;57301;50.328;8.542;2022-10-31T02:33:45;98976.75;;;8.02;94.44
69971;BME280;57301;50.328;8.542;2022-10-31T02:36:23;98984.69;;;8.14;94.89
69971;BME280;57301;50.328;8.542;2022-10-31T02:44:41;98985.97;;;8.30;92.56
69971;BME280;57301;50.328;8.542;2022-10-31T02:47:18;98985.50;;;8.25;93.10
69971;BME280;57301;50.328;8.542;2022-10-31T02:49:56;98982.88;;;8.14;94.08
69971;BME280;57301;50.328;8.542;2022-10-31T02:52:27;98982.56;;;8.28;93.87
69971;BME280;57301;50.328;8.542;2022-10-31T02:54:54;98981.03;;;8.26;93.62
69971;BME280;57301;50.328;8.542;2022-10-31T02:57:27;98975.56;;;8.27;93.38
69971;BME280;57301;50.328;8.542;2022-10-31T03:00:00;98972.81;;;8.29;93.70
69971;BME280;57301;50.328;8.542;2022-10-31T03:08:18;98962.53;;;8.36;94.89
69971;BME280;57301;50.328;8.542;2022-10-31T03:10:50;98966.25;;;8.33;94.43
69971;BME280;57301;50.328;8.542;2022-10-31T03:16:36;98967.34;;;8.42;92.97
69971;BME280;57301;50.328;8.542;2022-10-31T03:19:13;98968.78;;;8.34;93.19
69971;BME280;57301;50.328;8.542;2022-10-31T03:21:46;98967.84;;;8.36;92.00
69971;BME280;57301;50.328;8.542;2022-10-31T03:24:14;98966.38;;;8.31;91.79
69971;BME280;57301;50.328;8.542;2022-10-31T03:26:45;98966.91;;;8.25;92.25
69971;BME280;57301;50.328;8.542;2022-10-31T03:29:16;98967.50;;;8.29;92.26
69971;BME280;57301;50.328;8.542;2022-10-31T03:31:49;98963.72;;;8.31;92.05
69971;BME280;57301;50.328;8.542;2022-10-31T03:34:19;98970.53;;;8.24;91.55
69971;BME280;57301;50.328;8.542;2022-10-31T03:36:48;98961.97;;;8.21;92.54
69971;BME280;57301;50.328;8.542;2022-10-31T03:39:19;98963.09;;;8.07;93.54
69971;BME280;57301;50.328;8.542;2022-10-31T03:41:53;98968.63;;;8.15;94.36
69971;BME280;57301;50.328;8.542;2022-10-31T03:44:21;98968.28;;;8.08;93.91
69971;BME280;57301;50.328;8.542;2022-10-31T03:46:49;98967.91;;;8.13;93.01
69971;BME280;57301;50.328;8.542;2022-10-31T03:49:16;98962.31;;;8.16;92.89
69971;BME280;57301;50.328;8.542;2022-10-31T03:54:41;98963.81;;;8.09;92.55
69971;BME280;57301;50.328;8.542;2022-10-31T03:57:51;98957.94;;;8.05;92.85
69971;BME280;57301;50.328;8.542;2022-10-31T04:00:15;98965.78;;;7.96;93.68
69971;BME280;57301;50.328;8.542;2022-10-31T04:02:50;98959.50;;;7.97;93.63
69971;BME280;57301;50.328;8.542;2022-10-31T04:05:20;98956.84;;;7.97;92.62
69971;BME280;57301;50.328;8.542;2022-10-31T04:07:50;98959.00;;;8.03;92.78
69971;BME280;57301;50.328;8.542;2022-10-31T04:10:18;98962.63;;;8.02;92.63
69971;BME280;57301;50.328;8.542;2022-10-31T04:12:50;98974.72;;;8.06;92.12
69971;BME280;57301;50.328;8.542;2022-10-31T04:15:18;98961.16;;;8.09;92.36
69971;BME280;57301;50.328;8.542;2022-10-31T04:17:47;98969.97;;;8.09;91.79
69971;BME280;57301;50.328;8.542;2022-10-31T04:20:17;98966.22;;;8.12;91.80
69971;BME280;57301;50.328;8.542;2022-10-31T04:22:44;98961.69;;;7.92;93.03
69971;BME280;57301;50.328;8.542;2022-10-31T04:25:10;98959.91;;;7.92;93.22
69971;BME280;57301;50.328;8.542;2022-10-31T04:27:37;98965.66;;;7.97;93.29
69971;BME280;57301;50.328;8.542;2022-10-31T04:30:03;98967.47;;;7.97;92.88
69971;BME280;57301;50.328;8.542;2022-10-31T04:32:30;98970.63;;;7.91;93.36
69971;BME280;57301;50.328;8.542;2022-10-31T04:34:56;98975.56;;;7.95;92.95
69971;BME280;57301;50.328;8.542;2022-10-31T04:37:24;98967.47;;;7.97;94.07
69971;BME280;57301;50.328;8.542;2022-10-31T04:39:50;98966.00;;;8.04;93.08
69971;BME280;57301;50.328;8.542;2022-10-31T04:42:17;98964.94;;;7.95;93.43
69971;BME280;57301;50.328;8.542;2022-10-31T04:44:43;98967.47;;;7.97;93.37
69971;BME280;57301;50.328;8.542;2022-10-31T04:47:10;98963.97;;;7.96;92.39
69971;BME280;57301;50.328;8.542;2022-10-31T04:49:36;98968.91;;;8.01;92.14
69971;BME280;57301;50.328;8.542;2022-10-31T04:52:02;98974.94;;;8.03;92.59
69971;BME280;57301;50.328;8.542;2022-10-31T04:54:29;98976.75;;;8.02;92.41
69971;BME280;57301;50.328;8.542;2022-10-31T04:56:55;98967.72;;;8.05;92.24
69971;BME280;57301;50.328;8.542;2022-10-31T04:59:22;98969.53;;;8.04;92.46
69971;BME280;57301;50.328;8.542;2022-10-31T05:01:48;98969.75;;;8.01;91.91
69971;BME280;57301;50.328;8.542;2022-10-31T05:04:15;98966.97;;;8.03;92.22
69971;BME280;57301;50.328;8.542;2022-10-31T05:06:41;98970.38;;;8.05;92.04
69971;BME280;57301;50.328;8.542;2022-10-31T05:09:07;98965.75;;;8.07;91.48
69971;BME280;57301;50.328;8.542;2022-10-31T05:11:34;98963.25;;;8.05;91.66
69971;BME280;57301;50.328;8.542;2022-10-31T05:14:00;98964.44;;;8.01;91.59
69971;BME280;57301;50.328;8.542;2022-10-31T05:16:28;98963.94;;;8.07;91.22
69971;BME280;57301;50.328;8.542;2022-10-31T05:18:54;98960.69;;;8.04;91.38
69971;BME280;57301;50.328;8.542;2022-10-31T05:21:21;98960.69;;;8.04;91.13
69971;BME280;57301;50.328;8.542;2022-10-31T05:23:47;98956.34;;;8.03;91.75
69971;BME280;57301;50.328;8.542;2022-10-31T05:26:14;98955.88;;;7.98;91.48
69971;BME280;57301;50.328;8.542;2022-10-31T05:28:40;98958.44;;;7.99;92.39
69971;BME280;57301;50.328;8.542;2022-10-31T05:31:06;98956.16;;;7.95;93.54
69971;BME280;57301;50.328;8.542;2022-10-31T05:33:33;98958.28;;;8.01;93.06
69971;BME280;57301;50.328;8.542;2022-10-31T05:35:59;98962.16;;;7.97;92.72
69971;BME280;57301;50.328;8.542;2022-10-31T05:38:26;98960.25;;;7.99;93.04
69971;BME280;57301;50.328;8.542;2022-10-31T05:40:55;98962.25;;;8.06;91.93
69971;BME280;57301;50.328;8.542;2022-10-31T05:43:28;98964.84;;;7.86;92.62
69971;BME280;57301;50.328;8.542;2022-10-31T05:45:56;98954.16;;;7.76;92.63
69971;BME280;57301;50.328;8.542;2022-10-31T05:48:22;98959.69;;;7.73;93.62
69971;BME280;57301;50.328;8.542;2022-10-31T05:50:49;98955.50;;;7.70;94.12
69971;BME280;57301;50.328;8.542;2022-10-31T05:53:16;98955.34;;;7.72;94.87
69971;BME280;57301;50.328;8.542;2022-10-31T05:55:43;98951.38;;;7.66;94.56
69971;BME280;57301;50.328;8.542;2022-10-31T05:58:10;98960.09;;;7.68;94.67
69971;BME280;57301;50.328;8.542;2022-10-31T06:00:37;98958.63;;;7.75;94.08
69971;BME280;57301;50.328;8.542;2022-10-31T06:03:06;98951.38;;;7.77;94.64
69971;BME280;57301;50.328;8.542;2022-10-31T06:05:34;98958.84;;;7.84;94.16
69971;BME280;57301;50.328;8.542;2022-10-31T06:08:00;98956.03;;;7.85;93.40
69971;BME280;57301;50.328;8.542;2022-10-31T06:10:28;98956.38;;;7.92;93.27
69971;BME280;57301;50.328;8.542;2022-10-31T06:12:54;98955.44;;;7.93;92.44
69971;BME280;57301;50.328;8.542;2022-10-31T06:15:21;98952.03;;;7.91;92.32
69971;BME280;57301;50.328;8.542;2022-10-31T06:18:04;98955.44;;;7.93;92.08
69971;BME280;57301;50.328;8.542;2022-10-31T06:20:32;98952.78;;;7.93;91.93
69971;BME280;57301;50.328;8.542;2022-10-31T06:22:58;98954.13;;;7.87;92.20
69971;BME280;57301;50.328;8.542;2022-10-31T06:25:26;98959.09;;;7.80;92.49
69971;BME280;57301;50.328;8.542;2022-10-31T06:27:53;98960.00;;;7.91;92.61
69971;BME280;57301;50.328;8.542;2022-10-31T06:30:19;98958.28;;;8.01;91.66
69971;BME280;57301;50.328;8.542;2022-10-31T06:32:46;98953.69;;;8.03;91.99
69971;BME280;57301;50.328;8.542;2022-10-31T06:35:12;98947.38;;;8.15;91.42
69971;BME280;57301;50.328;8.542;2022-10-31T06:37:39;98948.50;;;8.33;90.89
69971;BME280;57301;50.328;8.542;2022-10-31T06:40:05;98952.06;;;8.55;90.61
69971;BME280;57301;50.328;8.542;2022-10-31T06:42:32;98949.22;;;8.77;88.90
69971;BME280;57301;50.328;8.542;2022-10-31T06:44:58;98940.56;;;9.06;88.01
69971;BME280;57301;50.328;8.542;2022-10-31T06:47:24;98943.91;;;9.38;86.76
69971;BME280;57301;50.328;8.542;2022-10-31T06:49:51;98945.38;;;9.62;85.48
69971;BME280;57301;50.328;8.542;2022-10-31T06:52:17;98953.56;;;9.80;83.54
69971;BME280;57301;50.328;8.542;2022-10-31T06:54:44;98948.69;;;9.94;83.38
69971;BME280;57301;50.328;8.542;2022-10-31T06:57:10;98946.16;;;10.03;83.11
69971;BME280;57301;50.328;8.542;2022-10-31T06:59:36;98951.19;;;10.06;82.87
69971;BME280;57301;50.328;8.542;2022-10-31T07:02:03;98954.44;;;10.09;83.17
69971;BME280;57301;50.328;8.542;2022-10-31T07:04:30;98952.06;;;10.16;84.12
69971;BME280;57301;50.328;8.542;2022-10-31T07:06:56;98958.53;;;10.33;83.71
69971;BME280;57301;50.328;8.542;2022-10-31T07:09:22;98958.69;;;10.51;82.60
69971;BME280;57301;50.328;8.542;2022-10-31T07:11:51;98959.75;;;10.77;82.44
69971;BME280;57301;50.328;8.542;2022-10-31T07:14:18;98957.59;;;11.00;80.55
69971;BME280;57301;50.328;8.542;2022-10-31T07:16:49;98959.94;;;11.13;80.66
69971;BME280;57301;50.328;8.542;2022-10-31T07:19:16;98964.38;;;11.32;80.68
69971;BME280;57301;50.328;8.542;2022-10-31T07:21:43;98965.78;;;11.53;79.60
69971;BME280;57301;50.328;8.542;2022-10-31T07:24:09;98962.00;;;11.83;78.83
69971;BME280;57301;50.328;8.542;2022-10-31T07:26:36;98958.91;;;12.42;77.43
69971;BME280;57301;50.328;8.542;2022-10-31T07:29:02;98961.19;;;12.98;74.94
69971;BME280;57301;50.328;8.542;2022-10-31T07:31:28;98963.78;;;13.42;73.10
69971;BME280;57301;50.328;8.542;2022-10-31T07:33:55;98965.63;;;13.76;71.94
69971;BME280;57301;50.328;8.542;2022-10-31T07:36:21;98964.88;;;14.08;71.24
69971;BME280;57301;50.328;8.542;2022-10-31T07:38:48;98961.03;;;14.27;69.88
69971;BME280;57301;50.328;8.542;2022-10-31T07:41:14;98963.13;;;14.73;68.00
69971;BME280;57301;50.328;8.542;2022-10-31T07:43:40;98965.03;;;15.28;66.40
69971;BME280;57301;50.328;8.542;2022-10-31T07:46:07;98959.53;;;15.61;65.18
69971;BME280;57301;50.328;8.542;2022-10-31T07:48:33;98956.66;;;16.02;63.42
69971;BME280;57301;50.328;8.542;2022-10-31T07:51:00;98955.69;;;16.49;62.74
69971;BME280;57301;50.328;8.542;2022-10-31T07:53:26;98954.53;;;16.66;61.77
69971;BME280;57301;50.328;8.542;2022-10-31T07:55:53;98954.97;;;16.78;61.22
69971;BME280;57301;50.328;8.542;2022-10-31T07:58:19;98957.03;;;16.76;61.95
69971;BME280;57301;50.328;8.542;2022-10-31T08:00:47;98962.19;;;17.15;61.23
69971;BME280;57301;50.328;8.542;2022-10-31T08:03:15;98962.09;;;17.53;60.29
69971;BME280;57301;50.328;8.542;2022-10-31T08:05:43;98960.25;;;17.68;59.39
69971;BME280;57301;50.328;8.542;2022-10-31T08:08:12;98963.03;;;17.60;59.53
69971;BME280;57301;50.328;8.542;2022-10-31T08:10:39;98957.63;;;17.60;59.89
69971;BME280;57301;50.328;8.542;2022-10-31T08:13:09;98960.25;;;17.53;60.09
69971;BME280;57301;50.328;8.542;2022-10-31T08:15:36;98960.88;;;17.11;61.46
69971;BME280;57301;50.328;8.542;2022-10-31T08:18:06;98969.59;;;16.98;62.79
69971;BME280;57301;50.328;8.542;2022-10-31T08:20:33;98965.81;;;17.37;61.63
69971;BME280;57301;50.328;8.542;2022-10-31T08:23:01;98960.63;;;17.65;61.23
69971;BME280;57301;50.328;8.542;2022-10-31T08:25:30;98955.66;;;17.98;60.11
69971;BME280;57301;50.328;8.542;2022-10-31T08:28:03;98957.59;;;18.04;59.96
69971;BME280;57301;50.328;8.542;2022-10-31T08:30:33;98950.75;;;18.23;59.68
69971;BME280;57301;50.328;8.542;2022-10-31T08:33:02;98945.16;;;18.46;58.92
69971;BME280;57301;50.328;8.542;2022-10-31T08:35:28;98947.13;;;18.59;58.82
69971;BME280;57301;50.328;8.542;2022-10-31T08:37:57;98941.44;;;18.68;58.14
69971;BME280;57301;50.328;8.542;2022-10-31T08:40:25;98939.84;;;19.02;57.93
69971;BME280;57301;50.328;8.542;2022-10-31T08:42:56;98947.53;;;19.33;57.18
69971;BME280;57301;50.328;8.542;2022-10-31T08:45:23;98949.03;;;19.08;57.63
69971;BME280;57301;50.328;8.542;2022-10-31T08:47:49;98935.88;;;19.32;57.57
69971;BME280;57301;50.328;8.542;2022-10-31T08:50:16;98936.22;;;20.05;55.55
69971;BME280;57301;50.328;8.542;2022-10-31T08:52:42;98938.16;;;19.64;55.54
69971;BME280;57301;50.328;8.542;2022-10-31T08:55:29;98933.50;;;19.57;55.14
69971;BME280;57301;50.328;8.542;2022-10-31T08:57:58;98934.34;;;19.99;54.33
69971;BME280;57301;50.328;8.542;2022-10-31T09:00:26;98928.47;;;20.83;53.16
69971;BME280;57301;50.328;8.542;2022-10-31T09:03:02;98927.38;;;21.24;52.12
69971;BME280;57301;50.328;8.542;2022-10-31T09:05:29;98924.41;;;21.52;51.15
69971;BME280;57301;50.328;8.542;2022-10-31T09:07:57;98923.28;;;21.80;51.74
69971;BME280;57301;50.328;8.542;2022-10-31T09:10:26;98919.47;;;21.87;50.87
69971;BME280;57301;50.328;8.542;2022-10-31T09:13:00;98920.41;;;22.13;49.90
69971;BME280;57301;50.328;8.542;2022-10-31T09:15:28;98915.63;;;21.57;50.76
69971;BME280;57301;50.328;8.542;2022-10-31T09:17:54;98911.69;;;21.46;51.06
69971;BME280;57301;50.328;8.542;2022-10-31T09:20:21;98910.63;;;21.47;52.11
69971;BME280;57301;50.328;8.542;2022-10-31T09:22:47;98908.63;;;21.81;50.72
69971;BME280;57301;50.328;8.542;2022-10-31T09:25:14;98905.88;;;21.87;51.59
69971;BME280;57301;50.328;8.542;2022-10-31T09:27:40;98911.94;;;22.27;50.13
69971;BME280;57301;50.328;8.542;2022-10-31T09:30:07;98906.03;;;22.37;50.07
69971;BME280;57301;50.328;8.542;2022-10-31T09:32:33;98910.38;;;22.45;49.61
69971;BME280;57301;50.328;8.542;2022-10-31T09:35:00;98911.69;;;22.67;49.50
69971;BME280;57301;50.328;8.542;2022-10-31T09:37:26;98908.69;;;23.00;49.23
69971;BME280;57301;50.328;8.542;2022-10-31T09:39:53;98912.34;;;23.13;48.32
69971;BME280;57301;50.328;8.542;2022-10-31T09:42:38;98901.84;;;23.16;48.82
69971;BME280;57301;50.328;8.542;2022-10-31T09:45:25;98899.06;;;23.41;48.74
69971;BME280;57301;50.328;8.542;2022-10-31T09:50:48;98893.78;;;23.28;48.47
69971;BME280;57301;50.328;8.542;2022-10-31T09:53:27;98894.28;;;23.18;49.19
69971;BME280;57301;50.328;8.542;2022-10-31T09:55:57;98898.53;;;23.32;49.02
69971;BME280;57301;50.328;8.542;2022-10-31T09:58:26;98892.16;;;23.57;48.68
69971;BME280;57301;50.328;8.542;2022-10-31T10:00:57;98885.72;;;24.06;48.06
69971;BME280;57301;50.328;8.542;2022-10-31T10:03:44;98883.16;;;24.77;46.15
69971;BME280;57301;50.328;8.542;2022-10-31T10:06:15;98879.03;;;25.21;44.89
69971;BME280;57301;50.328;8.542;2022-10-31T10:08:43;98876.28;;;24.98;44.26
69971;BME280;57301;50.328;8.542;2022-10-31T10:27:46;98863.34;;;25.28;44.81
69971;BME280;57301;50.328;8.542;2022-10-31T10:30:22;98867.91;;;25.75;43.41
69971;BME280;57301;50.328;8.542;2022-10-31T10:32:56;98871.63;;;25.97;43.64
69971;BME280;57301;50.328;8.542;2022-10-31T10:35:32;98866.53;;;26.46;42.68
69971;BME280;57301;50.328;8.542;2022-10-31T10:38:04;98866.47;;;26.29;42.89
69971;BME280;57301;50.328;8.542;2022-10-31T10:40:35;98854.34;;;25.80;43.95
69971;BME280;57301;50.328;8.542;2022-10-31T10:43:18;98855.91;;;26.04;43.48
69971;BME280;57301;50.328;8.542;2022-10-31T10:45:50;98855.00;;;26.32;43.02
69971;BME280;57301;50.328;8.542;2022-10-31T10:57:27;98846.22;;;26.13;41.14
69971;BME280;57301;50.328;8.542;2022-10-31T10:59:57;98851.03;;;25.14;43.40
69971;BME280;57301;50.328;8.542;2022-10-31T11:02:27;98843.38;;;24.34;46.23
69971;BME280;57301;50.328;8.542;2022-10-31T11:04:55;98853.00;;;24.18;45.29
69971;BME280;57301;50.328;8.542;2022-10-31T11:07:23;98844.41;;;23.91;46.39
69971;BME280;57301;50.328;8.542;2022-10-31T11:09:50;98837.53;;;23.40;44.07
69971;BME280;57301;50.328;8.542;2022-10-31T11:12:20;98828.47;;;22.85;44.65
69971;BME280;57301;50.328;8.542;2022-10-31T11:14:52;98831.19;;;22.41;45.27
69971;BME280;57301;50.328;8.542;2022-10-31T11:17:39;98826.09;;;22.20;46.07
69971;BME280;57301;50.328;8.542;2022-10-31T11:22:46;98822.19;;;22.41;45.90
69971;BME280;57301;50.328;8.542;2022-10-31T11:28:07;98807.66;;;22.29;45.29
69971;BME280;57301;50.328;8.542;2022-10-31T11:33:52;98798.84;;;24.10;47.19
69971;BME280;57301;50.328;8.542;2022-10-31T11:36:43;98790.28;;;25.47;44.08
69971;BME280;57301;50.328;8.542;2022-10-31T11:39:25;98780.31;;;26.43;41.07
69971;BME280;57301;50.328;8.542;2022-10-31T11:41:52;98791.16;;;26.94;39.85
69971;BME280;57301;50.328;8.542;2022-10-31T11:44:23;98784.03;;;26.54;38.54
69971;BME280;57301;50.328;8.542;2022-10-31T11:46:58;98786.34;;;26.62;38.73
69971;BME280;57301;50.328;8.542;2022-10-31T11:49:43;98775.56;;;26.72;40.35
69971;BME280;57301;50.328;8.542;2022-10-31T11:52:18;98770.16;;;26.77;39.12
69971;BME280;57301;50.328;8.542;2022-10-31T11:54:47;98771.16;;;26.71;40.71
69971;BME280;57301;50.328;8.542;2022-10-31T11:57:25;98774.81;;;26.99;40.91
69971;BME280;57301;50.328;8.542;2022-10-31T11:59:54;98769.25;;;27.11;40.45
69971;BME280;57301;50.328;8.542;2022-10-31T12:02:21;98767.44;;;26.99;40.86
69971;BME280;57301;50.328;8.542;2022-10-31T12:05:19;98767.13;;;26.96;40.55
69971;BME280;57301;50.328;8.542;2022-10-31T12:07:48;98759.56;;;26.31;41.66
69971;BME280;57301;50.328;8.542;2022-10-31T12:10:15;98754.50;;;25.89;42.51
69971;BME280;57301;50.328;8.542;2022-10-31T12:12:54;98749.78;;;25.56;43.94
69971;BME280;57301;50.328;8.542;2022-10-31T12:15:30;98753.59;;;25.03;43.38
69971;BME280;57301;50.328;8.542;2022-10-31T12:18:17;98744.03;;;24.88;43.30
69971;BME280;57301;50.328;8.542;2022-10-31T12:29:31;98741.59;;;23.56;46.96
69971;BME280;57301;50.328;8.542;2022-10-31T12:38:13;98735.75;;;23.71;47.95
69971;BME280;57301;50.328;8.542;2022-10-31T12:40:53;98735.00;;;24.18;47.15
69971;BME280;57301;50.328;8.542;2022-10-31T12:46:02;98732.84;;;25.02;45.29
69971;BME280;57301;50.328;8.542;2022-10-31T12:49:15;98723.94;;;25.18;44.90
69971;BME280;57301;50.328;8.542;2022-10-31T12:52:11;98717.28;;;24.62;45.00
69971;BME280;57301;50.328;8.542;2022-10-31T12:55:06;98707.41;;;24.61;46.80
69971;BME280;57301;50.328;8.542;2022-10-31T12:57:52;98701.59;;;25.78;43.46
69971;BME280;57301;50.328;8.542;2022-10-31T13:00:20;98682.47;;;26.89;41.44
69971;BME280;57301;50.328;8.542;2022-10-31T13:03:00;98678.97;;;27.16;41.45
69971;BME280;57301;50.328;8.542;2022-10-31T13:05:34;98671.25;;;26.47;42.22
69971;BME280;57301;50.328;8.542;2022-10-31T13:08:33;98671.50;;;25.33;44.91
69971;BME280;57301;50.328;8.542;2022-10-31T13:11:15;98666.03;;;24.64;45.41
69971;BME280;57301;50.328;8.542;2022-10-31T13:16:36;98658.66;;;22.99;46.59
69971;BME280;57301;50.328;8.542;2022-10-31T13:19:13;98655.16;;;23.10;48.66
69971;BME280;57301;50.328;8.542;2022-10-31T13:24:23;98647.78;;;24.29;49.34
69971;BME280;57301;50.328;8.542;2022-10-31T13:26:55;98632.38;;;24.99;46.45
69971;BME280;57301;50.328;8.542;2022-10-31T13:29:27;98633.81;;;26.14;44.43
69971;BME280;57301;50.328;8.542;2022-10-31T13:31:59;98625.66;;;26.52;42.90
69971;BME280;57301;50.328;8.542;2022-10-31T13:34:40;98631.22;;;26.63;43.99
69971;BME280;57301;50.328;8.542;2022-10-31T13:40:38;98622.94;;;24.78;46.87
69971;BME280;57301;50.328;8.542;2022-10-31T13:43:31;98622.56;;;23.75;49.91
69971;BME280;57301;50.328;8.542;2022-10-31T13:46:00;98618.19;;;23.21;50.61
69971;BME280;57301;50.328;8.542;2022-10-31T13:48:33;98626.50;;;22.77;52.05
69971;BME280;57301;50.328;8.542;2022-10-31T13:51:04;98625.47;;;22.42;53.34
69971;BME280;57301;50.328;8.542;2022-10-31T13:53:56;98613.06;;;22.09;54.39
69971;BME280;57301;50.328;8.542;2022-10-31T13:56:31;98614.75;;;21.60;55.65
69971;BME280;57301;50.328;8.542;2022-10-31T13:59:00;98625.44;;;21.24;57.33
69971;BME280;57301;50.328;8.542;2022-10-31T14:01:27;98611.31;;;21.15;58.12
69971;BME280;57301;50.328;8.542;2022-10-31T14:04:20;98619.34;;;20.97;59.11
69971;BME280;57301;50.328;8.542;2022-10-31T14:07:09;98611.53;;;20.82;59.05
69971;BME280;57301;50.328;8.542;2022-10-31T14:09:52;98602.19;;;20.71;59.38
69971;BME280;57301;50.328;8.542;2022-10-31T14:12:27;98605.84;;;20.38;60.23
69971;BME280;57301;50.328;8.542;2022-10-31T14:14:59;98601.91;;;20.28;60.75
69971;BME280;57301;50.328;8.542;2022-10-31T14:17:31;98600.03;;;20.28;61.09
69971;BME280;57301;50.328;8.542;2022-10-31T14:20:24;98609.66;;;20.11;61.38
69971;BME280;57301;50.328;8.542;2022-10-31T14:22:51;98602.59;;;20.10;62.04
69971;BME280;57301;50.328;8.542;2022-10-31T14:25:44;98608.47;;;19.87;63.20
69971;BME280;57301;50.328;8.542;2022-10-31T14:28:22;98605.34;;;19.70;64.44
69971;BME280;57301;50.328;8.542;2022-10-31T14:30:58;98599.94;;;19.64;63.79
69971;BME280;57301;50.328;8.542;2022-10-31T14:33:26;98601.19;;;19.41;63.81
69971;BME280;57301;50.328;8.542;2022-10-31T14:36:09;98584.97;;;19.41;63.94
69971;BME280;57301;50.328;8.542;2022-10-31T14:40:01;98574.34;;;19.33;64.20
69971;BME280;57301;50.328;8.542;2022-10-31T14:50:49;98592.78;;;18.90;65.96
69971;BME280;57301;50.328;8.542;2022-10-31T14:53:23;98600.31;;;19.01;65.31
69971;BME280;57301;50.328;8.542;2022-10-31T14:55:55;98601.78;;;19.03;65.00
69971;BME280;57301;50.328;8.542;2022-10-31T14:58:46;98596.78;;;19.07;64.91
69971;BME280;57301;50.328;8.542;2022-10-31T15:01:21;98587.63;;;19.08;64.84
69971;BME280;57301;50.328;8.542;2022-10-31T15:03:49;98581.81;;;19.11;64.99